Terminal Aerodrome Forecast
Issued by NWS Jackson, MS

Home | Current Version | Previous Version | Text Only | Print | Product List | Glossary On
Versions: 1 2 3 4 5 6 7 8 9 10 11 12 13 14 15 16 17 18 19 20 21
000
FTUS44 KJAN 020254 RRA
TAFMEI
TAF
KMEI 020254Z 0203/0224 18003KT P6SM SCT250
     FM020800 00000KT P6SM SCT015
     FM021100 00000KT 4SM BR OVC015
     FM021500 18005KT P6SM SCT025
     FM021800 19012G18KT P6SM SCT025 BKN050
     FM022200 19015G22KT P6SM VCTS SCT025CB BKN050=

USA.gov is the U.S. government's official web portal to all federal, state and local government web resources and services.